sensor_id;sensor_type;location;lat;lon;timestamp;temperature;humidity
27781;DHT22;15167;1.318;103.762;2023-09-19T00:00:31;28.30;1.00
27781;DHT22;15167;1.318;103.762;2023-09-19T00:02:59;28.40;1.00
27781;DHT22;15167;1.318;103.762;2023-09-19T00:05:27;28.40;1.00
27781;DHT22;15167;1.318;103.762;2023-09-19T00:07:57;28.50;1.00
27781;DHT22;15167;1.318;103.762;2023-09-19T00:10:27;28.50;1.00
27781;DHT22;15167;1.318;103.762;2023-09-19T00:12:58;28.50;1.00
27781;DHT22;15167;1.318;103.762;2023-09-19T00:15:36;28.50;1.00
27781;DHT22;15167;1.318;103.762;2023-09-19T00:18:04;28.50;99.90
27781;DHT22;15167;1.318;103.762;2023-09-19T00:20:37;28.60;99.90
27781;DHT22;15167;1.318;103.762;2023-09-19T00:23:05;28.50;99.90
27781;DHT22;15167;1.318;103.762;2023-09-19T00:25:31;28.50;99.90
27781;DHT22;15167;1.318;103.762;2023-09-19T00:28:01;28.60;99.90
27781;DHT22;15167;1.318;103.762;2023-09-19T00:30:28;28.60;99.90
27781;DHT22;15167;1.318;103.762;2023-09-19T00:32:55;28.70;99.90
27781;DHT22;15167;1.318;103.762;2023-09-19T00:35:21;28.70;99.90
27781;DHT22;15167;1.318;103.762;2023-09-19T00:37:52;28.70;99.90
27781;DHT22;15167;1.318;103.762;2023-09-19T00:40:19;28.70;99.90
27781;DHT22;15167;1.318;103.762;2023-09-19T00:42:46;28.70;99.90
27781;DHT22;15167;1.318;103.762;2023-09-19T00:45:15;28.70;99.90
27781;DHT22;15167;1.318;103.762;2023-09-19T00:47:48;28.70;99.90
27781;DHT22;15167;1.318;103.762;2023-09-19T00:50:22;28.80;36.60
27781;DHT22;15167;1.318;103.762;2023-09-19T00:52:52;28.80;1.00
27781;DHT22;15167;1.318;103.762;2023-09-19T00:55:20;28.90;1.00
27781;DHT22;15167;1.318;103.762;2023-09-19T00:57:47;29.00;99.90
27781;DHT22;15167;1.318;103.762;2023-09-19T01:00:16;29.10;99.90
27781;DHT22;15167;1.318;103.762;2023-09-19T01:02:46;29.10;34.00
27781;DHT22;15167;1.318;103.762;2023-09-19T01:05:13;29.10;1.00
27781;DHT22;15167;1.318;103.762;2023-09-19T01:07:40;29.10;1.00
27781;DHT22;15167;1.318;103.762;2023-09-19T01:10:09;29.10;1.00
27781;DHT22;15167;1.318;103.762;2023-09-19T01:23:48;29.60;99.90
27781;DHT22;15167;1.318;103.762;2023-09-19T01:29:52;29.70;99.90
27781;DHT22;15167;1.318;103.762;2023-09-19T01:32:21;29.80;91.70
27781;DHT22;15167;1.318;103.762;2023-09-19T01:34:53;29.90;1.00
27781;DHT22;15167;1.318;103.762;2023-09-19T01:37:21;29.90;1.00
27781;DHT22;15167;1.318;103.762;2023-09-19T01:39:57;30.00;99.90
27781;DHT22;15167;1.318;103.762;2023-09-19T01:47:57;30.00;99.90
27781;DHT22;15167;1.318;103.762;2023-09-19T01:50:55;30.10;99.90
27781;DHT22;15167;1.318;103.762;2023-09-19T01:56:35;30.40;37.10
27781;DHT22;15167;1.318;103.762;2023-09-19T01:59:13;30.50;1.00
27781;DHT22;15167;1.318;103.762;2023-09-19T02:01:40;30.50;1.00
27781;DHT22;15167;1.318;103.762;2023-09-19T02:04:11;30.50;1.00
27781;DHT22;15167;1.318;103.762;2023-09-19T02:06:41;30.50;1.00
27781;DHT22;15167;1.318;103.762;2023-09-19T02:09:08;30.50;1.00
27781;DHT22;15167;1.318;103.762;2023-09-19T02:11:35;30.40;1.00
27781;DHT22;15167;1.318;103.762;2023-09-19T02:14:02;30.40;99.90
27781;DHT22;15167;1.318;103.762;2023-09-19T02:16:30;30.40;1.00
27781;DHT22;15167;1.318;103.762;2023-09-19T02:18:57;30.40;1.00
27781;DHT22;15167;1.318;103.762;2023-09-19T02:21:26;30.50;99.90
27781;DHT22;15167;1.318;103.762;2023-09-19T02:24:12;30.50;1.00
27781;DHT22;15167;1.318;103.762;2023-09-19T02:26:39;30.60;1.00
27781;DHT22;15167;1.318;103.762;2023-09-19T02:29:05;30.60;99.90
27781;DHT22;15167;1.318;103.762;2023-09-19T02:31:34;30.60;99.90
27781;DHT22;15167;1.318;103.762;2023-09-19T02:34:01;30.70;1.00
27781;DHT22;15167;1.318;103.762;2023-09-19T02:36:27;30.80;75.90
27781;DHT22;15167;1.318;103.762;2023-09-19T02:38:57;30.90;99.90
27781;DHT22;15167;1.318;103.762;2023-09-19T02:41:23;31.00;99.90
27781;DHT22;15167;1.318;103.762;2023-09-19T02:43:51;31.10;99.90
27781;DHT22;15167;1.318;103.762;2023-09-19T02:46:18;31.10;99.90
27781;DHT22;15167;1.318;103.762;2023-09-19T02:48:46;31.10;99.10
27781;DHT22;15167;1.318;103.762;2023-09-19T02:51:13;31.10;21.20
27781;DHT22;15167;1.318;103.762;2023-09-19T02:53:40;31.10;54.20
27781;DHT22;15167;1.318;103.762;2023-09-19T02:56:08;31.00;95.00
27781;DHT22;15167;1.318;103.762;2023-09-19T02:58:37;31.00;99.90
27781;DHT22;15167;1.318;103.762;2023-09-19T03:01:13;31.00;99.90
27781;DHT22;15167;1.318;103.762;2023-09-19T03:03:39;30.90;99.90
27781;DHT22;15167;1.318;103.762;2023-09-19T03:06:07;30.90;99.90
27781;DHT22;15167;1.318;103.762;2023-09-19T03:08:36;31.00;2.30
27781;DHT22;15167;1.318;103.762;2023-09-19T03:11:05;31.00;11.40
27781;DHT22;15167;1.318;103.762;2023-09-19T03:13:35;31.10;8.40
27781;DHT22;15167;1.318;103.762;2023-09-19T03:16:05;31.20;1.00
27781;DHT22;15167;1.318;103.762;2023-09-19T03:18:34;31.20;1.00
27781;DHT22;15167;1.318;103.762;2023-09-19T03:21:01;31.20;1.00
27781;DHT22;15167;1.318;103.762;2023-09-19T03:23:29;31.30;1.00
27781;DHT22;15167;1.318;103.762;2023-09-19T03:25:56;31.30;99.90
27781;DHT22;15167;1.318;103.762;2023-09-19T03:28:23;31.40;99.90
27781;DHT22;15167;1.318;103.762;2023-09-19T03:31:03;31.30;99.90
27781;DHT22;15167;1.318;103.762;2023-09-19T03:33:29;31.30;99.90
27781;DHT22;15167;1.318;103.762;2023-09-19T03:36:00;31.20;1.00
27781;DHT22;15167;1.318;103.762;2023-09-19T03:38:31;31.20;99.90
27781;DHT22;15167;1.318;103.762;2023-09-19T03:40:58;31.10;99.90
27781;DHT22;15167;1.318;103.762;2023-09-19T03:43:25;31.20;99.90
27781;DHT22;15167;1.318;103.762;2023-09-19T03:45:52;31.30;99.90
27781;DHT22;15167;1.318;103.762;2023-09-19T03:48:20;31.30;99.90
27781;DHT22;15167;1.318;103.762;2023-09-19T03:50:48;31.30;99.90
27781;DHT22;15167;1.318;103.762;2023-09-19T03:53:14;31.30;99.90
27781;DHT22;15167;1.318;103.762;2023-09-19T03:55:45;31.40;99.90
27781;DHT22;15167;1.318;103.762;2023-09-19T03:58:12;31.40;99.90
27781;DHT22;15167;1.318;103.762;2023-09-19T04:00:39;31.40;90.50
27781;DHT22;15167;1.318;103.762;2023-09-19T04:03:06;31.40;95.40
27781;DHT22;15167;1.318;103.762;2023-09-19T04:05:33;31.40;87.40
27781;DHT22;15167;1.318;103.762;2023-09-19T04:08:00;31.40;57.50
27781;DHT22;15167;1.318;103.762;2023-09-19T04:10:27;31.40;1.00
27781;DHT22;15167;1.318;103.762;2023-09-19T04:12:55;31.50;1.00
27781;DHT22;15167;1.318;103.762;2023-09-19T04:15:23;31.50;1.00
27781;DHT22;15167;1.318;103.762;2023-09-19T04:17:51;31.60;1.00
27781;DHT22;15167;1.318;103.762;2023-09-19T04:20:18;31.60;1.00
27781;DHT22;15167;1.318;103.762;2023-09-19T04:22:52;31.60;99.90
27781;DHT22;15167;1.318;103.762;2023-09-19T04:25:18;31.60;99.90
27781;DHT22;15167;1.318;103.762;2023-09-19T04:27:45;31.70;99.90
27781;DHT22;15167;1.318;103.762;2023-09-19T04:30:15;31.70;99.90
27781;DHT22;15167;1.318;103.762;2023-09-19T04:32:42;31.70;99.90
27781;DHT22;15167;1.318;103.762;2023-09-19T04:35:10;31.70;74.20
27781;DHT22;15167;1.318;103.762;2023-09-19T04:37:40;31.80;99.90
27781;DHT22;15167;1.318;103.762;2023-09-19T04:40:10;31.80;99.90
27781;DHT22;15167;1.318;103.762;2023-09-19T04:42:52;31.80;38.60
27781;DHT22;15167;1.318;103.762;2023-09-19T04:45:23;31.90;34.40
27781;DHT22;15167;1.318;103.762;2023-09-19T04:47:49;32.10;99.90
27781;DHT22;15167;1.318;103.762;2023-09-19T04:50:16;32.10;19.60
27781;DHT22;15167;1.318;103.762;2023-09-19T04:52:50;32.10;97.10
27781;DHT22;15167;1.318;103.762;2023-09-19T04:55:19;32.20;57.50
27781;DHT22;15167;1.318;103.762;2023-09-19T04:57:47;32.30;27.70
27781;DHT22;15167;1.318;103.762;2023-09-19T05:00:19;32.30;1.00
27781;DHT22;15167;1.318;103.762;2023-09-19T05:02:54;32.40;1.00
27781;DHT22;15167;1.318;103.762;2023-09-19T05:05:22;32.20;1.00
27781;DHT22;15167;1.318;103.762;2023-09-19T05:07:50;32.10;1.00
27781;DHT22;15167;1.318;103.762;2023-09-19T05:10:17;32.00;1.00
27781;DHT22;15167;1.318;103.762;2023-09-19T05:12:44;32.00;1.00
27781;DHT22;15167;1.318;103.762;2023-09-19T05:15:13;32.10;1.00
27781;DHT22;15167;1.318;103.762;2023-09-19T05:17:51;32.20;1.00
27781;DHT22;15167;1.318;103.762;2023-09-19T05:20:18;32.30;1.00
27781;DHT22;15167;1.318;103.762;2023-09-19T05:23:05;32.30;1.00
27781;DHT22;15167;1.318;103.762;2023-09-19T05:25:38;32.30;1.00
27781;DHT22;15167;1.318;103.762;2023-09-19T05:28:09;32.30;1.00
27781;DHT22;15167;1.318;103.762;2023-09-19T05:30:38;32.30;1.00
27781;DHT22;15167;1.318;103.762;2023-09-19T05:33:05;32.30;1.00
27781;DHT22;15167;1.318;103.762;2023-09-19T05:35:32;32.20;1.00
27781;DHT22;15167;1.318;103.762;2023-09-19T05:37:59;32.20;1.00
27781;DHT22;15167;1.318;103.762;2023-09-19T05:40:25;32.10;1.00
27781;DHT22;15167;1.318;103.762;2023-09-19T05:42:53;32.20;1.00
27781;DHT22;15167;1.318;103.762;2023-09-19T05:45:19;32.30;1.00
27781;DHT22;15167;1.318;103.762;2023-09-19T05:47:51;32.40;1.00
27781;DHT22;15167;1.318;103.762;2023-09-19T05:50:22;32.60;1.00
27781;DHT22;15167;1.318;103.762;2023-09-19T05:52:54;32.60;1.00
27781;DHT22;15167;1.318;103.762;2023-09-19T05:55:22;32.70;1.00
27781;DHT22;15167;1.318;103.762;2023-09-19T05:57:52;32.70;1.00
27781;DHT22;15167;1.318;103.762;2023-09-19T06:00:24;32.80;1.00
27781;DHT22;15167;1.318;103.762;2023-09-19T06:02:55;32.80;1.00
27781;DHT22;15167;1.318;103.762;2023-09-19T06:05:23;32.90;1.00
27781;DHT22;15167;1.318;103.762;2023-09-19T06:07:50;33.00;1.00
27781;DHT22;15167;1.318;103.762;2023-09-19T06:10:18;33.10;1.00
27781;DHT22;15167;1.318;103.762;2023-09-19T06:12:47;33.20;1.00
27781;DHT22;15167;1.318;103.762;2023-09-19T06:15:14;33.20;1.00
27781;DHT22;15167;1.318;103.762;2023-09-19T06:17:45;33.00;1.00
27781;DHT22;15167;1.318;103.762;2023-09-19T06:20:12;32.80;1.00
27781;DHT22;15167;1.318;103.762;2023-09-19T06:22:44;32.60;1.00
27781;DHT22;15167;1.318;103.762;2023-09-19T06:25:13;32.40;1.00
27781;DHT22;15167;1.318;103.762;2023-09-19T06:27:47;32.40;1.00
27781;DHT22;15167;1.318;103.762;2023-09-19T06:30:14;32.60;99.90
27781;DHT22;15167;1.318;103.762;2023-09-19T06:32:41;32.70;99.90
27781;DHT22;15167;1.318;103.762;2023-09-19T06:35:12;32.80;99.90
27781;DHT22;15167;1.318;103.762;2023-09-19T06:37:39;32.80;99.90
27781;DHT22;15167;1.318;103.762;2023-09-19T06:40:08;32.80;99.90
27781;DHT22;15167;1.318;103.762;2023-09-19T06:42:50;32.90;99.90
27781;DHT22;15167;1.318;103.762;2023-09-19T06:45:17;33.00;99.90
27781;DHT22;15167;1.318;103.762;2023-09-19T06:47:47;33.10;99.90
27781;DHT22;15167;1.318;103.762;2023-09-19T06:50:21;33.10;99.90
27781;DHT22;15167;1.318;103.762;2023-09-19T06:52:53;33.20;99.90
27781;DHT22;15167;1.318;103.762;2023-09-19T06:55:21;33.20;99.90
27781;DHT22;15167;1.318;103.762;2023-09-19T06:57:51;33.10;99.90
27781;DHT22;15167;1.318;103.762;2023-09-19T07:00:20;32.80;99.90
27781;DHT22;15167;1.318;103.762;2023-09-19T07:03:02;32.50;99.90
27781;DHT22;15167;1.318;103.762;2023-09-19T07:05:38;32.30;99.90
27781;DHT22;15167;1.318;103.762;2023-09-19T07:08:07;32.20;99.90
27781;DHT22;15167;1.318;103.762;2023-09-19T07:10:34;32.00;1.00
27781;DHT22;15167;1.318;103.762;2023-09-19T07:13:04;31.90;1.00
27781;DHT22;15167;1.318;103.762;2023-09-19T07:15:39;31.80;1.00
27781;DHT22;15167;1.318;103.762;2023-09-19T07:18:07;31.70;1.00
27781;DHT22;15167;1.318;103.762;2023-09-19T07:20:37;31.50;1.00
27781;DHT22;15167;1.318;103.762;2023-09-19T07:23:04;31.20;1.00
27781;DHT22;15167;1.318;103.762;2023-09-19T07:25:32;29.30;99.90
27781;DHT22;15167;1.318;103.762;2023-09-19T07:27:59;28.30;1.00
27781;DHT22;15167;1.318;103.762;2023-09-19T07:30:26;28.10;71.70
27781;DHT22;15167;1.318;103.762;2023-09-19T07:32:53;28.00;1.00
27781;DHT22;15167;1.318;103.762;2023-09-19T07:35:20;28.20;1.00
27781;DHT22;15167;1.318;103.762;2023-09-19T07:37:47;28.50;1.00
27781;DHT22;15167;1.318;103.762;2023-09-19T07:40:18;28.60;99.90
27781;DHT22;15167;1.318;103.762;2023-09-19T07:42:46;28.50;99.90
27781;DHT22;15167;1.318;103.762;2023-09-19T07:45:13;28.30;99.90
27781;DHT22;15167;1.318;103.762;2023-09-19T07:47:50;28.20;99.90
27781;DHT22;15167;1.318;103.762;2023-09-19T07:50:18;28.30;99.90
27781;DHT22;15167;1.318;103.762;2023-09-19T07:52:45;28.10;1.00
27781;DHT22;15167;1.318;103.762;2023-09-19T07:55:12;28.00;1.00
27781;DHT22;15167;1.318;103.762;2023-09-19T07:57:43;27.90;1.00
27781;DHT22;15167;1.318;103.762;2023-09-19T08:00:10;28.00;99.90
27781;DHT22;15167;1.318;103.762;2023-09-19T08:02:38;28.00;1.00
27781;DHT22;15167;1.318;103.762;2023-09-19T08:05:05;27.70;1.00
27781;DHT22;15167;1.318;103.762;2023-09-19T08:07:42;27.70;1.00
27781;DHT22;15167;1.318;103.762;2023-09-19T08:10:09;27.70;99.90
27781;DHT22;15167;1.318;103.762;2023-09-19T08:12:41;27.60;99.00
27781;DHT22;15167;1.318;103.762;2023-09-19T08:15:20;27.60;99.90
27781;DHT22;15167;1.318;103.762;2023-09-19T08:17:48;27.50;99.90
27781;DHT22;15167;1.318;103.762;2023-09-19T08:20:15;27.40;99.90
27781;DHT22;15167;1.318;103.762;2023-09-19T08:22:53;27.20;1.00
27781;DHT22;15167;1.318;103.762;2023-09-19T08:25:23;27.30;18.60
27781;DHT22;15167;1.318;103.762;2023-09-19T08:27:55;27.20;99.90
27781;DHT22;15167;1.318;103.762;2023-09-19T08:30:24;27.10;99.90
27781;DHT22;15167;1.318;103.762;2023-09-19T08:32:59;27.30;1.00
27781;DHT22;15167;1.318;103.762;2023-09-19T08:35:27;27.30;1.00
27781;DHT22;15167;1.318;103.762;2023-09-19T08:37:54;27.10;99.90
27781;DHT22;15167;1.318;103.762;2023-09-19T08:40:22;27.20;1.00
27781;DHT22;15167;1.318;103.762;2023-09-19T08:42:54;27.10;75.30
27781;DHT22;15167;1.318;103.762;2023-09-19T08:45:21;27.30;99.90
27781;DHT22;15167;1.318;103.762;2023-09-19T08:48:08;27.50;88.80
27781;DHT22;15167;1.318;103.762;2023-09-19T08:50:50;27.60;1.00
27781;DHT22;15167;1.318;103.762;2023-09-19T08:56:00;27.60;1.00
27781;DHT22;15167;1.318;103.762;2023-09-19T08:58:34;27.70;14.80
27781;DHT22;15167;1.318;103.762;2023-09-19T09:01:01;27.70;1.00
27781;DHT22;15167;1.318;103.762;2023-09-19T09:03:33;27.70;1.00
27781;DHT22;15167;1.318;103.762;2023-09-19T09:06:01;27.70;99.90
27781;DHT22;15167;1.318;103.762;2023-09-19T09:08:29;27.70;99.90
27781;DHT22;15167;1.318;103.762;2023-09-19T09:10:57;27.60;99.90
27781;DHT22;15167;1.318;103.762;2023-09-19T09:13:25;27.60;99.90
27781;DHT22;15167;1.318;103.762;2023-09-19T09:15:52;27.70;99.90
27781;DHT22;15167;1.318;103.762;2023-09-19T09:18:20;27.70;99.90
27781;DHT22;15167;1.318;103.762;2023-09-19T09:20:46;27.80;99.90
27781;DHT22;15167;1.318;103.762;2023-09-19T09:23:14;27.70;99.90
27781;DHT22;15167;1.318;103.762;2023-09-19T09:25:54;27.90;99.90
27781;DHT22;15167;1.318;103.762;2023-09-19T09:28:24;27.90;99.90
27781;DHT22;15167;1.318;103.762;2023-09-19T09:30:52;28.00;99.90
27781;DHT22;15167;1.318;103.762;2023-09-19T09:33:19;28.00;99.90
27781;DHT22;15167;1.318;103.762;2023-09-19T09:35:53;28.10;99.90
27781;DHT22;15167;1.318;103.762;2023-09-19T09:38:26;28.10;99.90
27781;DHT22;15167;1.318;103.762;2023-09-19T09:40:54;28.20;99.90
27781;DHT22;15167;1.318;103.762;2023-09-19T09:43:38;28.20;99.90
27781;DHT22;15167;1.318;103.762;2023-09-19T09:46:17;28.20;99.90
27781;DHT22;15167;1.318;103.762;2023-09-19T09:48:57;28.20;99.90
27781;DHT22;15167;1.318;103.762;2023-09-19T09:51:59;28.20;99.90
27781;DHT22;15167;1.318;103.762;2023-09-19T09:54:29;28.10;99.90
27781;DHT22;15167;1.318;103.762;2023-09-19T09:57:07;28.10;99.90
27781;DHT22;15167;1.318;103.762;2023-09-19T10:02:27;27.20;99.90
27781;DHT22;15167;1.318;103.762;2023-09-19T10:05:19;27.10;99.90
27781;DHT22;15167;1.318;103.762;2023-09-19T10:07:49;27.10;74.10
27781;DHT22;15167;1.318;103.762;2023-09-19T10:10:42;27.10;99.90
27781;DHT22;15167;1.318;103.762;2023-09-19T10:13:13;27.10;1.00
27781;DHT22;15167;1.318;103.762;2023-09-19T10:15:47;27.20;1.00
27781;DHT22;15167;1.318;103.762;2023-09-19T10:18:27;27.20;1.00
27781;DHT22;15167;1.318;103.762;2023-09-19T10:20:57;27.10;99.90
27781;DHT22;15167;1.318;103.762;2023-09-19T10:23:25;27.10;99.90
27781;DHT22;15167;1.318;103.762;2023-09-19T10:25:57;27.10;99.90
27781;DHT22;15167;1.318;103.762;2023-09-19T10:28:28;27.10;99.90
27781;DHT22;15167;1.318;103.762;2023-09-19T10:30:57;27.10;99.90
27781;DHT22;15167;1.318;103.762;2023-09-19T10:33:25;27.00;99.90
27781;DHT22;15167;1.318;103.762;2023-09-19T10:35:59;27.00;99.90
27781;DHT22;15167;1.318;103.762;2023-09-19T10:38:27;27.00;99.90
27781;DHT22;15167;1.318;103.762;2023-09-19T10:40:56;27.00;99.90
27781;DHT22;15167;1.318;103.762;2023-09-19T10:43:30;27.10;99.90
27781;DHT22;15167;1.318;103.762;2023-09-19T10:46:03;27.10;99.90
27781;DHT22;15167;1.318;103.762;2023-09-19T10:48:31;27.10;99.90
27781;DHT22;15167;1.318;103.762;2023-09-19T10:51:03;27.10;99.90
27781;DHT22;15167;1.318;103.762;2023-09-19T10:56:09;27.10;99.90
27781;DHT22;15167;1.318;103.762;2023-09-19T10:58:43;27.20;1.00
27781;DHT22;15167;1.318;103.762;2023-09-19T11:01:11;27.20;99.90
27781;DHT22;15167;1.318;103.762;2023-09-19T11:03:39;27.30;1.00
27781;DHT22;15167;1.318;103.762;2023-09-19T11:06:18;27.30;1.00
27781;DHT22;15167;1.318;103.762;2023-09-19T11:09:12;27.40;1.00
27781;DHT22;15167;1.318;103.762;2023-09-19T11:11:45;27.50;1.00
27781;DHT22;15167;1.318;103.762;2023-09-19T11:14:29;27.50;1.00
27781;DHT22;15167;1.318;103.762;2023-09-19T11:30:41;27.70;1.00
27781;DHT22;15167;1.318;103.762;2023-09-19T11:36:13;27.70;1.00
27781;DHT22;15167;1.318;103.762;2023-09-19T11:49:19;27.80;1.00
27781;DHT22;15167;1.318;103.762;2023-09-19T11:51:52;27.90;1.00
27781;DHT22;15167;1.318;103.762;2023-09-19T11:54:20;27.90;1.00
27781;DHT22;15167;1.318;103.762;2023-09-19T11:56:54;28.00;1.00
27781;DHT22;15167;1.318;103.762;2023-09-19T11:59:22;28.00;1.00
27781;DHT22;15167;1.318;103.762;2023-09-19T12:02:07;28.00;1.00
27781;DHT22;15167;1.318;103.762;2023-09-19T12:04:42;28.00;1.00
27781;DHT22;15167;1.318;103.762;2023-09-19T12:07:15;28.00;1.00
27781;DHT22;15167;1.318;103.762;2023-09-19T12:09:51;28.10;1.00
27781;DHT22;15167;1.318;103.762;2023-09-19T12:12:37;28.10;1.00
27781;DHT22;15167;1.318;103.762;2023-09-19T12:15:04;28.10;1.00
27781;DHT22;15167;1.318;103.762;2023-09-19T12:17:39;28.10;1.00
27781;DHT22;15167;1.318;103.762;2023-09-19T12:20:07;28.10;1.00
27781;DHT22;15167;1.318;103.762;2023-09-19T12:22:44;28.10;1.00
27781;DHT22;15167;1.318;103.762;2023-09-19T12:25:13;28.10;1.00
27781;DHT22;15167;1.318;103.762;2023-09-19T12:27:49;28.10;1.00
27781;DHT22;15167;1.318;103.762;2023-09-19T12:30:19;28.10;99.90
27781;DHT22;15167;1.318;103.762;2023-09-19T12:32:47;28.10;99.90
27781;DHT22;15167;1.318;103.762;2023-09-19T12:35:30;28.10;99.90
27781;DHT22;15167;1.318;103.762;2023-09-19T12:38:01;28.10;99.90
27781;DHT22;15167;1.318;103.762;2023-09-19T12:40:30;28.00;99.90
27781;DHT22;15167;1.318;103.762;2023-09-19T12:42:59;28.00;99.90
27781;DHT22;15167;1.318;103.762;2023-09-19T12:45:30;28.00;99.90
27781;DHT22;15167;1.318;103.762;2023-09-19T12:48:26;28.00;1.00
27781;DHT22;15167;1.318;103.762;2023-09-19T12:51:11;28.00;1.00
27781;DHT22;15167;1.318;103.762;2023-09-19T12:53:46;28.00;1.00
27781;DHT22;15167;1.318;103.762;2023-09-19T12:56:16;28.00;1.00
27781;DHT22;15167;1.318;103.762;2023-09-19T12:58:57;27.90;1.00
27781;DHT22;15167;1.318;103.762;2023-09-19T13:01:30;27.90;1.00
27781;DHT22;15167;1.318;103.762;2023-09-19T13:06:51;27.90;1.00
27781;DHT22;15167;1.318;103.762;2023-09-19T13:09:20;27.80;1.00
27781;DHT22;15167;1.318;103.762;2023-09-19T13:11:47;27.80;28.80
27781;DHT22;15167;1.318;103.762;2023-09-19T13:14:23;27.80;32.90
27781;DHT22;15167;1.318;103.762;2023-09-19T13:19:40;27.80;61.50
27781;DHT22;15167;1.318;103.762;2023-09-19T13:25:07;27.80;99.90
27781;DHT22;15167;1.318;103.762;2023-09-19T13:27:34;27.80;99.90
27781;DHT22;15167;1.318;103.762;2023-09-19T13:30:01;27.80;99.90
27781;DHT22;15167;1.318;103.762;2023-09-19T13:32:27;27.80;99.90
27781;DHT22;15167;1.318;103.762;2023-09-19T13:34:56;27.80;99.90
27781;DHT22;15167;1.318;103.762;2023-09-19T13:37:23;27.80;99.90
27781;DHT22;15167;1.318;103.762;2023-09-19T13:39:50;27.80;99.90
27781;DHT22;15167;1.318;103.762;2023-09-19T13:42:17;27.80;99.90
27781;DHT22;15167;1.318;103.762;2023-09-19T13:44:44;27.80;99.90
27781;DHT22;15167;1.318;103.762;2023-09-19T13:47:11;27.80;99.90
27781;DHT22;15167;1.318;103.762;2023-09-19T13:49:41;27.80;99.90
27781;DHT22;15167;1.318;103.762;2023-09-19T13:52:09;27.80;99.90
27781;DHT22;15167;1.318;103.762;2023-09-19T13:54:35;27.80;99.90
27781;DHT22;15167;1.318;103.762;2023-09-19T13:57:02;27.80;99.90
27781;DHT22;15167;1.318;103.762;2023-09-19T13:59:28;27.80;99.90
27781;DHT22;15167;1.318;103.762;2023-09-19T14:01:57;27.80;99.90
27781;DHT22;15167;1.318;103.762;2023-09-19T14:04:23;27.70;99.90
27781;DHT22;15167;1.318;103.762;2023-09-19T14:06:50;27.80;99.90
27781;DHT22;15167;1.318;103.762;2023-09-19T14:09:16;27.80;99.90
27781;DHT22;15167;1.318;103.762;2023-09-19T14:11:45;27.70;99.90
27781;DHT22;15167;1.318;103.762;2023-09-19T14:14:13;27.70;99.90
27781;DHT22;15167;1.318;103.762;2023-09-19T14:16:41;27.70;99.90
27781;DHT22;15167;1.318;103.762;2023-09-19T14:19:09;27.70;99.90
27781;DHT22;15167;1.318;103.762;2023-09-19T14:21:36;27.70;99.90
27781;DHT22;15167;1.318;103.762;2023-09-19T14:24:05;27.60;1.00
27781;DHT22;15167;1.318;103.762;2023-09-19T14:26:36;27.60;1.00
27781;DHT22;15167;1.318;103.762;2023-09-19T14:29:04;27.70;1.00
27781;DHT22;15167;1.318;103.762;2023-09-19T14:31:30;27.70;1.00
27781;DHT22;15167;1.318;103.762;2023-09-19T14:33:57;27.70;1.00
27781;DHT22;15167;1.318;103.762;2023-09-19T14:36:26;27.70;1.00
27781;DHT22;15167;1.318;103.762;2023-09-19T14:38:53;27.70;1.00
27781;DHT22;15167;1.318;103.762;2023-09-19T14:41:20;27.70;1.00
27781;DHT22;15167;1.318;103.762;2023-09-19T14:43:49;27.70;1.00
27781;DHT22;15167;1.318;103.762;2023-09-19T14:46:15;27.70;1.00
27781;DHT22;15167;1.318;103.762;2023-09-19T14:48:42;27.70;1.00
27781;DHT22;15167;1.318;103.762;2023-09-19T14:51:10;27.70;1.00
27781;DHT22;15167;1.318;103.762;2023-09-19T14:53:38;27.70;1.00
27781;DHT22;15167;1.318;103.762;2023-09-19T14:56:09;27.70;1.00
27781;DHT22;15167;1.318;103.762;2023-09-19T14:58:37;27.70;1.00
27781;DHT22;15167;1.318;103.762;2023-09-19T15:01:12;27.70;1.00
27781;DHT22;15167;1.318;103.762;2023-09-19T15:03:40;27.70;1.00
27781;DHT22;15167;1.318;103.762;2023-09-19T15:06:12;27.70;1.00
27781;DHT22;15167;1.318;103.762;2023-09-19T15:08:44;27.70;1.00
27781;DHT22;15167;1.318;103.762;2023-09-19T15:11:15;27.70;1.00
27781;DHT22;15167;1.318;103.762;2023-09-19T15:13:55;27.70;1.00
27781;DHT22;15167;1.318;103.762;2023-09-19T15:16:22;27.70;1.00
27781;DHT22;15167;1.318;103.762;2023-09-19T15:18:48;27.70;1.00
27781;DHT22;15167;1.318;103.762;2023-09-19T15:21:17;27.70;1.00
27781;DHT22;15167;1.318;103.762;2023-09-19T15:23:44;27.70;1.00
27781;DHT22;15167;1.318;103.762;2023-09-19T15:26:13;27.80;1.00
27781;DHT22;15167;1.318;103.762;2023-09-19T15:28:40;27.70;1.00
27781;DHT22;15167;1.318;103.762;2023-09-19T15:31:13;27.70;1.00
27781;DHT22;15167;1.318;103.762;2023-09-19T15:33:40;27.70;1.00
27781;DHT22;15167;1.318;103.762;2023-09-19T15:36:15;27.70;4.20
27781;DHT22;15167;1.318;103.762;2023-09-19T15:39:00;27.70;1.00
27781;DHT22;15167;1.318;103.762;2023-09-19T15:41:32;27.70;5.90
27781;DHT22;15167;1.318;103.762;2023-09-19T15:46:32;27.70;24.50
27781;DHT22;15167;1.318;103.762;2023-09-19T15:49:02;27.80;30.80
27781;DHT22;15167;1.318;103.762;2023-09-19T15:51:29;27.70;58.20
27781;DHT22;15167;1.318;103.762;2023-09-19T15:53:56;27.70;63.70
27781;DHT22;15167;1.318;103.762;2023-09-19T15:56:23;27.70;45.90
27781;DHT22;15167;1.318;103.762;2023-09-19T15:58:51;27.70;74.80
27781;DHT22;15167;1.318;103.762;2023-09-19T16:01:20;27.70;60.50
27781;DHT22;15167;1.318;103.762;2023-09-19T16:03:51;27.80;65.40
27781;DHT22;15167;1.318;103.762;2023-09-19T16:06:26;27.80;92.20
27781;DHT22;15167;1.318;103.762;2023-09-19T16:08:59;27.80;80.50
27781;DHT22;15167;1.318;103.762;2023-09-19T16:11:27;27.80;86.80
27781;DHT22;15167;1.318;103.762;2023-09-19T16:13:54;27.80;98.70
27781;DHT22;15167;1.318;103.762;2023-09-19T16:16:22;27.80;99.90
27781;DHT22;15167;1.318;103.762;2023-09-19T16:18:53;27.70;99.90
27781;DHT22;15167;1.318;103.762;2023-09-19T16:21:26;27.80;99.90
27781;DHT22;15167;1.318;103.762;2023-09-19T16:23:55;27.70;99.90
27781;DHT22;15167;1.318;103.762;2023-09-19T16:26:26;27.70;99.90
27781;DHT22;15167;1.318;103.762;2023-09-19T16:28:54;27.60;99.90
27781;DHT22;15167;1.318;103.762;2023-09-19T16:31:27;27.60;1.00
27781;DHT22;15167;1.318;103.762;2023-09-19T16:33:54;27.50;96.60
27781;DHT22;15167;1.318;103.762;2023-09-19T16:36:21;27.40;99.90
27781;DHT22;15167;1.318;103.762;2023-09-19T16:38:49;27.30;93.90
27781;DHT22;15167;1.318;103.762;2023-09-19T16:41:17;27.20;99.90
27781;DHT22;15167;1.318;103.762;2023-09-19T16:43:48;27.20;99.90
27781;DHT22;15167;1.318;103.762;2023-09-19T16:46:14;27.20;1.00
27781;DHT22;15167;1.318;103.762;2023-09-19T16:48:46;27.20;1.00
27781;DHT22;15167;1.318;103.762;2023-09-19T16:51:15;27.20;1.00